首页
METAR-TAF:

METAR-TAF

机场 :

达喀尔-约夫-利奥波德·塞达尔·桑戈尔国际机场

達喀爾, 塞内加尔

纬度: 14-44N, 经度: 017-30W, 海拔: 27米

当前天气观测

该预报发布于22分钟前的19:00 UTC
风速8节,风向西南
温度 28°C
湿度 79%
气压 1012 hPa
能见度10公里或以上
散云层高于1500英尺
散云层高于2000英尺, 塔状积云.

METAR: GOOY 231900Z 22008KT 9999 SCT015 SCT020TCU 28/24 Q1012

时间: 19:22 (19:22 UTC)

预报

该预报发布于1小时和52分钟前的17:30 UTC
预报有效从23日的 18点(UTC)到 24日的 24点(UTC)
风速10节,风向西南
能见度10公里或以上
散云层高于1300英尺
几率 30% :
短暂存在
从 23日的 20点(UTC)到 23日的 24点(UTC)
能見度: 4500
多云层高于1000英尺
少量云层高于2000英尺, 积雨云.
雷暴, 雨

TAF: GOOY 231730Z 2318/2424 22010KT 9999 SCT013 PROB30 TEMPO 2320/2324 4500 TSRA BKN010 FEW020CB

超过4000个机场的气象观测和天气预报(METAR&TAF报告)。

可查询的气象台以黄色和红色小点在地图上表示。

将鼠标移到小点上方,可查看气象台名称。

然后点击查看天气观测和预报。

如需切换地图:点击带黑十字的绿色按钮放大地图;点击带横线的绿色按钮缩小地图;或者点击绿色箭头查看邻近地区的地图。


METAR-TAF: